createdAt,value
2019-06-10T00:04:43.153Z,2.70
2019-06-10T00:09:51.162Z,3.50
2019-06-10T00:15:01.286Z,2.90
2019-06-10T00:20:11.189Z,2.73
2019-06-10T00:25:20.860Z,3.10
2019-06-10T00:30:27.675Z,2.80
2019-06-10T00:35:35.148Z,2.90
2019-06-10T00:40:42.544Z,2.77
2019-06-10T00:45:51.382Z,2.80
2019-06-10T00:51:00.997Z,2.87
2019-06-10T00:56:08.826Z,3.20
2019-06-10T01:01:21.876Z,3.00
2019-06-10T01:06:28.632Z,3.20
2019-06-10T01:11:36.086Z,3.27
2019-06-10T01:16:43.506Z,3.00
2019-06-10T01:21:51.366Z,3.03
2019-06-10T01:27:01.260Z,2.90
2019-06-10T01:32:09.755Z,3.07
2019-06-10T01:37:17.847Z,3.10
2019-06-10T01:42:25.267Z,3.00
2019-06-10T01:47:32.718Z,2.87
2019-06-10T01:52:41.094Z,3.30
2019-06-10T01:57:48.800Z,3.00
2019-06-10T02:02:56.254Z,3.30
2019-06-10T02:08:03.687Z,3.17
2019-06-10T02:13:31.969Z,3.50
2019-06-10T02:18:38.284Z,3.20
2019-06-10T02:23:45.610Z,3.23
2019-06-10T02:28:53.210Z,3.47
2019-06-10T02:34:02.553Z,3.60
2019-06-10T02:39:13.359Z,3.50
2019-06-10T02:44:29.159Z,3.63
2019-06-10T02:49:51.643Z,3.63
2019-06-10T02:54:37.986Z,3.77
2019-06-10T02:59:46.759Z,3.70
2019-06-10T03:04:54.216Z,3.70
2019-06-10T03:10:04.683Z,3.70
2019-06-10T03:15:12.589Z,3.80
2019-06-10T03:20:20.028Z,3.60
2019-06-10T03:25:27.738Z,4.17
2019-06-10T03:30:46.682Z,4.03
2019-06-10T03:35:44.309Z,3.93
2019-06-10T03:40:52.477Z,3.90
2019-06-10T03:46:02.663Z,4.37
2019-06-10T03:51:09.047Z,3.90
2019-06-10T03:56:17.169Z,4.33
2019-06-10T04:01:26.992Z,3.97
2019-06-10T04:06:33.895Z,4.67
2019-06-10T04:11:43.186Z,5.00
2019-06-10T04:16:52.542Z,5.03
2019-06-10T04:22:02.602Z,4.97
2019-06-10T04:27:12.129Z,5.20
2019-06-10T04:32:20.073Z,4.90
2019-06-10T04:37:29.351Z,5.67
2019-06-10T04:42:37.079Z,4.90
2019-06-10T04:47:44.558Z,5.40
2019-06-10T04:52:52.904Z,5.93
2019-06-10T04:58:02.528Z,5.80
2019-06-10T05:03:12.108Z,5.80
2019-06-10T05:08:19.321Z,6.43
2019-06-10T05:13:28.249Z,6.73
2019-06-10T05:18:36.084Z,7.50
2019-06-10T05:23:43.929Z,8.00
2019-06-10T05:28:52.395Z,7.70
2019-06-10T05:34:02.378Z,8.30
2019-06-10T05:39:12.153Z,8.10
2019-06-10T05:44:19.391Z,7.60
2019-06-10T05:49:27.794Z,6.90
2019-06-10T05:54:35.892Z,8.33
2019-06-10T05:59:43.376Z,8.07
2019-06-10T06:04:52.938Z,8.60
2019-06-10T06:10:02.518Z,8.63
2019-06-10T06:15:12.477Z,8.20
2019-06-10T06:20:19.943Z,8.20
2019-06-10T06:25:28.122Z,11.30
2019-06-10T06:30:37.629Z,7.57
2019-06-10T06:35:46.546Z,7.53
2019-06-10T06:40:54.269Z,7.53
2019-06-10T06:46:02.462Z,7.43
2019-06-10T06:51:12.725Z,7.27
2019-06-10T06:56:19.312Z,7.43
2019-06-10T07:01:26.881Z,7.63
2019-06-10T07:06:36.041Z,7.80
2019-06-10T07:11:46.974Z,7.70
2019-06-10T07:16:55.325Z,7.80
2019-06-10T07:22:12.294Z,7.70
2019-06-10T07:27:13.110Z,7.30
2019-06-10T07:32:22.687Z,7.37
2019-06-10T07:37:32.746Z,8.30
2019-06-10T07:42:43.643Z,7.73
2019-06-10T07:47:49.390Z,8.00
2019-06-10T07:52:56.802Z,8.17
2019-06-10T07:58:04.258Z,7.53
2019-06-10T08:03:12.889Z,7.50
2019-06-10T08:08:20.486Z,7.60
2019-06-10T08:13:27.993Z,7.87
2019-06-10T08:18:44.446Z,8.00
2019-06-10T08:23:46.886Z,7.40
2019-06-10T08:28:53.827Z,7.67
2019-06-10T08:34:03.072Z,7.40
2019-06-10T08:39:15.088Z,7.73
2019-06-10T08:44:19.863Z,8.17
2019-06-10T08:49:27.374Z,7.70
2019-06-10T08:54:34.906Z,7.90
2019-06-10T08:59:44.772Z,7.53
2019-06-10T09:04:53.648Z,8.23
2019-06-10T09:10:02.935Z,8.20
2019-06-10T09:15:12.924Z,8.47
2019-06-10T09:20:23.009Z,8.43
2019-06-10T09:25:33.395Z,8.63
2019-06-10T09:30:44.211Z,8.03
2019-06-10T09:35:52.014Z,8.30
2019-06-10T09:41:01.719Z,9.00
2019-06-10T09:46:08.989Z,9.70
2019-06-10T09:51:16.736Z,9.80
2019-06-10T09:56:24.196Z,10.77
2019-06-10T10:01:32.657Z,11.67
2019-06-10T10:06:42.105Z,11.80
2019-06-10T10:11:51.468Z,13.67
2019-06-10T10:17:00.745Z,12.70
2019-06-10T10:22:11.062Z,11.53
2019-06-10T10:27:17.742Z,10.63
2019-06-10T10:32:25.359Z,10.77
2019-06-10T10:37:32.930Z,8.83
2019-06-10T10:42:45.977Z,8.20
2019-06-10T10:47:51.847Z,8.17
2019-06-10T10:52:59.020Z,8.23
2019-06-10T10:58:06.800Z,8.20
2019-06-10T11:03:14.844Z,8.18
2019-06-10T11:08:22.951Z,7.80
2019-06-10T11:13:34.535Z,7.93
2019-06-10T11:18:42.386Z,7.87
2019-06-10T11:23:50.209Z,7.97
2019-06-10T11:28:58.020Z,8.37
2019-06-10T11:34:05.777Z,7.80
2019-06-10T11:39:13.506Z,8.07
2019-06-10T11:44:22.477Z,8.60
2019-06-10T11:49:31.207Z,8.13
2019-06-10T11:54:53.734Z,7.42
2019-06-10T11:59:48.070Z,7.60
2019-06-10T12:04:57.565Z,6.83
2019-06-10T12:10:05.181Z,7.00
2019-06-10T12:15:13.584Z,6.87
2019-06-10T12:20:22.827Z,5.95
2019-06-10T12:25:36.833Z,5.60
2019-06-10T12:30:42.180Z,4.97
2019-06-10T12:35:48.925Z,5.17
2019-06-10T12:40:58.946Z,4.70
2019-06-10T12:46:05.750Z,5.55
2019-06-10T12:51:13.795Z,5.10
2019-06-10T12:56:22.773Z,5.15
2019-06-10T13:01:32.809Z,4.83
2019-06-10T13:06:41.628Z,5.37
2019-06-10T13:11:52.618Z,5.55
2019-06-10T13:17:00.574Z,6.45
2019-06-10T13:22:08.913Z,6.17
2019-06-10T13:27:16.445Z,6.15
2019-06-10T13:32:23.991Z,6.10
2019-06-10T13:37:32.178Z,6.58
2019-06-10T13:42:42.226Z,6.37
2019-06-10T13:47:48.818Z,6.70
2019-06-10T13:52:56.414Z,6.55
2019-06-10T13:58:06.259Z,6.40
2019-06-10T14:03:16.124Z,6.65
2019-06-10T14:08:23.301Z,6.45
2019-06-10T14:13:32.677Z,6.35
2019-06-10T14:18:41.902Z,6.95
2019-06-10T14:23:49.176Z,7.10
2019-06-10T14:28:56.624Z,6.90
2019-06-10T14:34:06.107Z,6.95
2019-06-10T14:39:14.683Z,6.83
2019-06-10T14:44:23.477Z,7.40
2019-06-10T14:49:33.012Z,7.53
2019-06-10T14:54:42.684Z,6.95
2019-06-10T14:59:49.214Z,7.05
2019-06-10T15:04:56.657Z,6.62
2019-06-10T15:10:04.187Z,6.72
2019-06-10T15:15:12.269Z,6.95
2019-06-10T15:20:22.547Z,6.62
2019-06-10T15:25:29.137Z,6.97
2019-06-10T15:30:36.495Z,6.47
2019-06-10T15:35:43.757Z,6.60
2019-06-10T15:40:53.197Z,7.05
2019-06-10T15:46:00.240Z,6.37
2019-06-10T15:51:07.690Z,6.90
2019-06-10T15:56:27.015Z,7.28
2019-06-10T16:01:26.856Z,7.70
2019-06-10T16:06:34.348Z,6.80
2019-06-10T16:11:43.641Z,7.00
2019-06-10T16:16:52.568Z,6.83
2019-06-10T16:22:00.176Z,7.03
2019-06-10T16:27:07.545Z,6.78
2019-06-10T16:32:16.294Z,6.67
2019-06-10T16:37:25.346Z,6.40
2019-06-10T16:42:32.839Z,6.20
2019-06-10T16:47:42.880Z,6.42
2019-06-10T16:52:49.557Z,6.53
2019-06-10T16:57:59.691Z,6.22
2019-06-10T17:03:06.888Z,6.35
2019-06-10T17:08:14.289Z,5.67
2019-06-10T17:13:27.202Z,5.78
2019-06-10T17:18:35.537Z,9.50
2019-06-10T17:23:43.412Z,6.10
2019-06-10T17:28:52.145Z,5.87
2019-06-10T17:34:02.518Z,5.50
2019-06-10T17:39:12.355Z,6.95
2019-06-10T17:44:24.367Z,12.58
2019-06-10T17:49:34.690Z,7.03
2019-06-10T17:54:41.935Z,7.05
2019-06-10T17:59:49.386Z,6.53
2019-06-10T18:04:56.856Z,6.72
2019-06-10T18:10:04.422Z,6.37
2019-06-10T18:15:12.706Z,6.70
2019-06-10T18:20:22.336Z,8.97
2019-06-10T18:25:30.456Z,6.67
2019-06-10T18:30:38.087Z,6.73
2019-06-10T18:35:45.457Z,7.60
2019-06-10T18:40:53.548Z,17.27
2019-06-10T18:46:03.507Z,9.43
2019-06-10T18:51:12.518Z,8.97
2019-06-10T18:56:19.362Z,9.23
2019-06-10T19:01:28.105Z,9.33
2019-06-10T19:06:37.093Z,8.20
2019-06-10T19:11:44.763Z,8.97
2019-06-10T19:16:52.563Z,10.20
2019-06-10T19:22:06.161Z,14.57
2019-06-10T19:27:09.344Z,12.73
2019-06-10T19:32:18.506Z,10.40
2019-06-10T19:37:40.503Z,11.40
2019-06-10T19:42:49.338Z,11.07
2019-06-10T19:48:16.344Z,11.53
2019-06-10T19:53:37.292Z,10.00
2019-06-10T19:58:48.510Z,9.50
2019-06-10T20:03:55.940Z,8.20
2019-06-10T20:09:06.343Z,8.70
2019-06-10T20:14:14.194Z,8.07
2019-06-10T20:19:22.483Z,10.90
2019-06-10T20:24:30.115Z,0.90
2019-06-10T20:29:37.885Z,0.93
2019-06-10T20:34:45.641Z,0.50
2019-06-10T20:39:55.193Z,0.83
2019-06-10T20:45:04.989Z,0.80
2019-06-10T20:50:13.091Z,1.20
2019-06-10T20:55:23.154Z,0.30
2019-06-10T21:00:41.994Z,1.33
2019-06-10T21:05:53.312Z,1.90
2019-06-10T21:11:02.658Z,0.40
2019-06-10T21:16:09.359Z,0.87
2019-06-10T21:21:16.783Z,1.23
2019-06-10T21:26:24.265Z,0.37
2019-06-10T21:31:32.614Z,0.93
2019-06-10T21:36:41.235Z,0.47
2019-06-10T21:41:49.858Z,0.77
2019-06-10T21:46:57.388Z,0.43
2019-06-10T21:52:04.913Z,0.27
2019-06-10T21:57:12.338Z,0.73
2019-06-10T22:02:19.781Z,1.27
2019-06-10T22:07:27.242Z,0.47
2019-06-10T22:12:34.639Z,0.50
2019-06-10T22:17:42.546Z,1.97
2019-06-10T22:22:53.643Z,0.57
2019-06-10T22:28:02.704Z,1.07
2019-06-10T22:33:12.195Z,1.07
2019-06-10T22:38:18.955Z,0.70
2019-06-10T22:43:26.375Z,0.47
2019-06-10T22:48:33.772Z,0.30
2019-06-10T22:53:42.526Z,0.37
2019-06-10T22:58:53.946Z,1.40
2019-06-10T23:04:01.048Z,0.30
2019-06-10T23:09:09.376Z,0.53
2019-06-10T23:14:16.740Z,0.70
2019-06-10T23:19:27.104Z,0.60
2019-06-10T23:24:33.225Z,1.33
2019-06-10T23:29:42.618Z,0.40
2019-06-10T23:34:49.538Z,0.97
2019-06-10T23:39:56.928Z,0.57
2019-06-10T23:45:05.206Z,0.40
2019-06-10T23:50:13.097Z,1.00
2019-06-10T23:55:22.686Z,1.67
